Time;durP1;ratioP1;P1;durP2;ratioP2;P2;SDS_P1;SDS_P2;PMS_P1;PMS_P2;Temp;Humidity;BMP_temperature;BMP_pressure;BME280_temperature;BME280_humidity;BME280_pressure;Samples;Min_cycle;Max_cycle;Signal;HPM_P1;HPM_P2
2022/03/15 00:01:21;;;;;;;410.15;189.77;;;;;;;;;;5066348;28;20374;-70
2022/03/15 00:03:48;;;;;;;331.85;156.10;;;;;;;;;;5066999;28;20169;-70
2022/03/15 00:06:13;;;;;;;265.30;123.60;;;;;;;;;;5066413;28;20025;-70
2022/03/15 00:08:39;;;;;;;198.93;98.15;;;;;;;;;;5067457;28;20039;-70
2022/03/15 00:11:05;;;;;;;250.43;124.28;;;;;;;;;;5067343;28;20021;-70
2022/03/15 00:13:31;;;;;;;241.63;127.80;;;;;;;;;;5081476;28;20093;-71
2022/03/15 00:16:00;;;;;;;202.63;99.22;;;;;;;;;;5088823;28;20032;-70
2022/03/15 00:18:27;;;;;;;125.70;64.82;;;;;;;;;;5088685;28;20027;-69
2022/03/15 00:20:53;;;;;;;127.05;64.82;;;;;;;;;;5089165;28;20081;-70
2022/03/15 00:23:18;;;;;;;104.40;54.58;;;;;;;;;;5088765;28;20388;-70
2022/03/15 00:25:44;;;;;;;145.68;70.93;;;;;;;;;;5088118;28;20020;-69
2022/03/15 00:28:09;;;;;;;216.50;108.60;;;;;;;;;;5089831;28;20427;-70
2022/03/15 00:30:34;;;;;;;109.30;57.67;;;;;;;;;;5088404;28;20024;-70
2022/03/15 00:33:00;;;;;;;85.13;44.47;;;;;;;;;;5085503;28;20141;-70
2022/03/15 00:35:25;;;;;;;78.07;40.95;;;;;;;;;;5075731;28;20024;-71
2022/03/15 00:37:54;;;;;;;92.55;47.67;;;;;;;;;;5084906;28;20120;-70
2022/03/15 00:40:20;;;;;;;92.73;46.33;;;;;;;;;;5084683;28;20387;-70
2022/03/15 00:42:53;;;;;;;107.45;56.63;;;;;;;;;;5084679;28;21050;-70
2022/03/15 00:45:19;;;;;;;129.68;62.08;;;;;;;;;;5085332;28;20021;-70
2022/03/15 00:47:45;;;;;;;130.88;63.45;;;;;;;;;;5083908;28;20439;-71
2022/03/15 00:50:11;;;;;;;139.73;74.63;;;;;;;;;;5084342;28;20042;-70
2022/03/15 00:52:37;;;;;;;125.20;67.68;;;;;;;;;;5083879;28;20359;-70
2022/03/15 00:55:04;;;;;;;125.38;65.28;;;;;;;;;;5085375;28;20020;-70
2022/03/15 00:57:29;;;;;;;144.23;72.78;;;;;;;;;;5085309;28;20032;-70
2022/03/15 00:59:55;;;;;;;248.48;114.00;;;;;;;;;;5084976;28;20093;-70
2022/03/15 01:02:20;;;;;;;220.77;102.18;;;;;;;;;;5086023;28;20039;-69
2022/03/15 01:04:46;;;;;;;130.73;64.72;;;;;;;;;;5083552;28;20026;-70
2022/03/15 01:07:12;;;;;;;126.20;66.30;;;;;;;;;;5084429;28;20063;-70
2022/03/15 01:09:40;;;;;;;146.40;78.93;;;;;;;;;;5084605;28;20034;-70
2022/03/15 01:12:06;;;;;;;152.50;78.53;;;;;;;;;;5085522;28;20024;-69
2022/03/15 01:14:32;;;;;;;151.15;73.22;;;;;;;;;;5082775;28;20114;-69
2022/03/15 01:16:57;;;;;;;80.93;41.83;;;;;;;;;;5085260;28;20035;-69
2022/03/15 01:19:23;;;;;;;108.50;55.97;;;;;;;;;;5083152;28;20476;-70
2022/03/15 01:21:49;;;;;;;123.20;62.90;;;;;;;;;;5083583;28;20028;-70
2022/03/15 01:24:14;;;;;;;143.10;70.40;;;;;;;;;;5085960;28;20032;-70
2022/03/15 01:26:40;;;;;;;170.20;99.45;;;;;;;;;;5083811;28;20108;-70
2022/03/15 01:29:05;;;;;;;104.43;56.95;;;;;;;;;;5084582;28;20039;-70
2022/03/15 01:31:30;;;;;;;136.05;79.05;;;;;;;;;;5084681;28;20028;-70
2022/03/15 01:33:56;;;;;;;134.00;78.80;;;;;;;;;;5085423;28;20054;-69
2022/03/15 01:36:22;;;;;;;157.68;95.53;;;;;;;;;;5084141;28;20454;-70
2022/03/15 01:38:47;;;;;;;179.23;73.03;;;;;;;;;;5083470;28;20062;-70
2022/03/15 01:41:13;;;;;;;153.02;87.30;;;;;;;;;;5085941;28;20028;-69
2022/03/15 01:43:40;;;;;;;116.82;55.78;;;;;;;;;;5082426;28;20027;-69
2022/03/15 01:46:06;;;;;;;123.38;59.90;;;;;;;;;;5083680;28;20028;-69
2022/03/15 01:48:31;;;;;;;108.15;51.25;;;;;;;;;;5081969;28;20109;-69
2022/03/15 01:50:57;;;;;;;140.38;66.18;;;;;;;;;;5083750;28;20845;-69
2022/03/15 01:53:22;;;;;;;117.72;60.17;;;;;;;;;;5082823;28;20020;-70
2022/03/15 01:55:48;;;;;;;110.07;53.28;;;;;;;;;;5082736;28;20481;-69
2022/03/15 01:58:14;;;;;;;103.97;54.83;;;;;;;;;;5084256;28;20027;-70
2022/03/15 02:00:39;;;;;;;96.10;48.40;;;;;;;;;;5084109;28;20395;-69
2022/03/15 02:03:05;;;;;;;77.88;39.65;;;;;;;;;;5083962;28;20032;-69
2022/03/15 02:05:30;;;;;;;91.15;49.28;;;;;;;;;;5083372;28;20111;-69
2022/03/15 02:07:56;;;;;;;177.50;84.82;;;;;;;;;;5082706;28;20407;-69
2022/03/15 02:10:22;;;;;;;112.57;56.58;;;;;;;;;;5082496;28;20015;-70
2022/03/15 02:12:47;;;;;;;141.27;63.35;;;;;;;;;;5082462;28;20040;-70
2022/03/15 02:15:13;;;;;;;126.97;57.67;;;;;;;;;;5081513;28;20503;-71
2022/03/15 02:17:39;;;;;;;134.50;53.95;;;;;;;;;;5074069;28;20441;-70
2022/03/15 02:20:07;;;;;;;182.15;81.90;;;;;;;;;;5070946;28;20073;-70
2022/03/15 02:22:33;;;;;;;162.70;70.63;;;;;;;;;;5073016;28;20446;-71
2022/03/15 02:24:58;;;;;;;127.28;54.78;;;;;;;;;;5071374;28;20047;-70
2022/03/15 02:27:24;;;;;;;120.45;53.83;;;;;;;;;;5074623;28;20406;-70
2022/03/15 02:29:49;;;;;;;126.32;55.35;;;;;;;;;;5082415;28;20591;-70
2022/03/15 02:32:15;;;;;;;139.90;59.92;;;;;;;;;;5082151;28;20088;-70
2022/03/15 02:34:40;;;;;;;129.02;70.82;;;;;;;;;;5074882;28;20458;-70
2022/03/15 02:37:06;;;;;;;106.25;52.03;;;;;;;;;;5082447;28;20028;-70
2022/03/15 02:39:31;;;;;;;103.30;49.30;;;;;;;;;;5082971;28;20053;-70
2022/03/15 02:41:57;;;;;;;98.05;42.95;;;;;;;;;;5083220;28;20036;-71
2022/03/15 02:44:23;;;;;;;86.75;40.72;;;;;;;;;;5082001;28;20432;-70
2022/03/15 02:46:51;;;;;;;94.15;53.85;;;;;;;;;;5081667;28;20020;-70
2022/03/15 02:49:17;;;;;;;64.60;36.53;;;;;;;;;;5082960;28;20454;-70
2022/03/15 02:51:42;;;;;;;67.68;32.20;;;;;;;;;;5070797;28;20070;-69
2022/03/15 02:54:11;;;;;;;75.72;29.08;;;;;;;;;;5082272;28;20081;-69
2022/03/15 02:56:39;;;;;;;49.33;22.52;;;;;;;;;;5081406;28;20046;-70
2022/03/15 02:59:05;;;;;;;67.30;27.52;;;;;;;;;;5082577;28;20439;-70
2022/03/15 03:01:30;;;;;;;62.30;24.95;;;;;;;;;;5081806;28;20082;-69
2022/03/15 03:03:55;;;;;;;46.50;21.48;;;;;;;;;;5082993;28;20050;-70
2022/03/15 03:06:21;;;;;;;59.55;24.48;;;;;;;;;;5071539;28;20383;-70
2022/03/15 03:08:47;;;;;;;58.25;23.17;;;;;;;;;;5073159;28;20039;-68
2022/03/15 03:11:13;;;;;;;44.55;20.17;;;;;;;;;;5068795;28;20466;-69
2022/03/15 03:13:42;;;;;;;35.35;16.40;;;;;;;;;;5080915;28;20044;-69
2022/03/15 03:16:07;;;;;;;205.85;62.83;;;;;;;;;;5082081;28;20088;-69
2022/03/15 03:18:33;;;;;;;186.38;65.05;;;;;;;;;;5081250;28;20036;-69
2022/03/15 03:21:03;;;;;;;74.45;33.42;;;;;;;;;;5081991;28;20114;-70
2022/03/15 03:23:29;;;;;;;55.22;23.77;;;;;;;;;;5084804;28;20028;-70
2022/03/15 03:25:56;;;;;;;71.72;33.95;;;;;;;;;;5081828;28;20020;-70
2022/03/15 03:28:22;;;;;;;65.72;31.52;;;;;;;;;;5071190;28;20012;-70
2022/03/15 03:30:48;;;;;;;49.45;22.65;;;;;;;;;;5082423;28;20105;-69
2022/03/15 03:33:14;;;;;;;38.25;21.52;;;;;;;;;;5083190;28;20060;-70
2022/03/15 03:35:39;;;;;;;39.88;19.42;;;;;;;;;;5081692;28;20020;-70
2022/03/15 03:38:05;;;;;;;47.53;22.42;;;;;;;;;;5075155;28;20031;-69
2022/03/15 03:40:31;;;;;;;85.35;40.35;;;;;;;;;;5072065;28;20027;-70
2022/03/15 03:42:56;;;;;;;56.40;25.40;;;;;;;;;;5081047;28;20028;-69
2022/03/15 03:45:22;;;;;;;47.95;21.88;;;;;;;;;;5081876;28;20022;-69
2022/03/15 03:47:47;;;;;;;39.95;18.67;;;;;;;;;;5082211;28;20036;-69
2022/03/15 03:50:12;;;;;;;46.80;23.38;;;;;;;;;;5065817;28;20047;-69
2022/03/15 03:52:38;;;;;;;63.47;27.00;;;;;;;;;;5075773;28;20098;-70
2022/03/15 03:55:03;;;;;;;48.85;21.58;;;;;;;;;;5079883;28;21603;-70
2022/03/15 03:57:29;;;;;;;62.75;26.88;;;;;;;;;;5075502;28;20028;-70
2022/03/15 03:59:54;;;;;;;89.07;34.25;;;;;;;;;;5079658;28;20343;-70
2022/03/15 04:02:20;;;;;;;49.45;22.40;;;;;;;;;;5074804;28;20055;-70
2022/03/15 04:04:45;;;;;;;46.83;19.15;;;;;;;;;;5061211;28;20362;-70
2022/03/15 04:07:11;;;;;;;48.33;20.10;;;;;;;;;;5078053;28;20091;-70
2022/03/15 04:09:37;;;;;;;48.13;22.38;;;;;;;;;;5073593;28;20505;-70
2022/03/15 04:12:05;;;;;;;50.10;22.65;;;;;;;;;;5072919;28;20726;-69
2022/03/15 04:14:30;;;;;;;50.55;22.33;;;;;;;;;;5074271;28;20028;-70
2022/03/15 04:16:56;;;;;;;41.35;19.20;;;;;;;;;;5074521;28;20089;-70
2022/03/15 04:19:21;;;;;;;37.38;18.52;;;;;;;;;;5073830;28;20101;-69
2022/03/15 04:21:47;;;;;;;42.90;20.20;;;;;;;;;;5076396;28;20603;-70
2022/03/15 04:24:14;;;;;;;54.33;23.95;;;;;;;;;;5079482;28;20059;-70
2022/03/15 04:26:41;;;;;;;59.55;25.60;;;;;;;;;;5078533;28;20050;-69
2022/03/15 04:29:06;;;;;;;98.88;44.75;;;;;;;;;;5075149;28;20019;-70
2022/03/15 04:31:32;;;;;;;124.90;55.88;;;;;;;;;;5073660;28;20574;-70
2022/03/15 04:33:57;;;;;;;125.97;54.33;;;;;;;;;;5073535;28;20024;-70
2022/03/15 04:36:22;;;;;;;115.32;49.08;;;;;;;;;;5073918;28;20354;-70
2022/03/15 04:38:48;;;;;;;89.45;41.40;;;;;;;;;;5073204;28;20051;-70
2022/03/15 04:41:13;;;;;;;83.32;41.70;;;;;;;;;;5073619;28;20077;-70
2022/03/15 04:43:39;;;;;;;89.93;39.78;;;;;;;;;;5075574;28;20080;-70
2022/03/15 04:46:04;;;;;;;70.45;34.55;;;;;;;;;;5073041;28;20090;-70
2022/03/15 04:48:29;;;;;;;75.43;41.35;;;;;;;;;;5072564;28;20024;-70
2022/03/15 04:50:55;;;;;;;77.25;39.10;;;;;;;;;;5077709;28;20427;-70
2022/03/15 04:53:21;;;;;;;67.80;31.15;;;;;;;;;;5084367;28;20043;-70
2022/03/15 04:55:46;;;;;;;64.47;31.27;;;;;;;;;;5084779;28;21262;-68
2022/03/15 04:58:12;;;;;;;71.72;34.15;;;;;;;;;;5084183;28;20072;-68
2022/03/15 05:00:37;;;;;;;98.68;43.70;;;;;;;;;;5083547;28;20473;-70
2022/03/15 05:03:03;;;;;;;89.18;39.72;;;;;;;;;;5085046;28;20028;-70
2022/03/15 05:05:28;;;;;;;75.47;36.92;;;;;;;;;;5083992;28;20024;-70
2022/03/15 05:07:54;;;;;;;58.97;30.83;;;;;;;;;;5083838;28;20020;-70
2022/03/15 05:13:03;;;;;;;56.03;27.17;;;;;;;;;;5070536;28;20054;-67
2022/03/15 05:15:29;;;;;;;46.03;23.10;;;;;;;;;;5073756;28;20110;-68
2022/03/15 05:17:54;;;;;;;43.63;22.00;;;;;;;;;;5067733;28;20074;-68
2022/03/15 05:20:20;;;;;;;162.27;73.57;;;;;;;;;;5073255;28;20031;-69
2022/03/15 05:22:46;;;;;;;146.48;71.30;;;;;;;;;;5073582;28;20054;-70
2022/03/15 05:25:14;;;;;;;101.63;47.13;;;;;;;;;;5078323;28;20123;-70
2022/03/15 05:27:40;;;;;;;88.63;36.95;;;;;;;;;;5078101;28;20450;-70
2022/03/15 05:30:06;;;;;;;81.93;36.00;;;;;;;;;;5073350;28;20032;-71
2022/03/15 05:32:32;;;;;;;81.93;35.47;;;;;;;;;;5074091;28;20024;-70
2022/03/15 05:34:57;;;;;;;131.30;56.85;;;;;;;;;;5072424;28;20024;-71
2022/03/15 05:37:23;;;;;;;161.52;73.25;;;;;;;;;;5074286;28;20069;-70
2022/03/15 05:39:48;;;;;;;202.98;85.78;;;;;;;;;;5075622;28;20119;-69
2022/03/15 05:42:16;;;;;;;129.80;57.33;;;;;;;;;;5072457;28;20522;-69
2022/03/15 05:44:41;;;;;;;94.50;45.70;;;;;;;;;;5072646;28;20118;-69
2022/03/15 05:47:07;;;;;;;68.03;28.52;;;;;;;;;;5070709;28;20142;-71
2022/03/15 05:49:32;;;;;;;89.68;38.45;;;;;;;;;;5078403;28;20074;-66
2022/03/15 05:51:58;;;;;;;120.57;50.17;;;;;;;;;;5084355;28;20032;-69
2022/03/15 05:54:23;;;;;;;133.27;61.22;;;;;;;;;;5085184;28;20012;-68
2022/03/15 05:56:49;;;;;;;131.18;61.25;;;;;;;;;;5083314;28;20039;-68
2022/03/15 05:59:14;;;;;;;127.47;54.50;;;;;;;;;;5084092;28;20027;-67
2022/03/15 06:01:40;;;;;;;108.50;48.50;;;;;;;;;;5082541;28;20113;-67
2022/03/15 06:04:07;;;;;;;96.18;44.03;;;;;;;;;;5085727;28;20028;-71
2022/03/15 06:06:33;;;;;;;73.43;37.58;;;;;;;;;;5076069;28;20520;-70
2022/03/15 06:08:58;;;;;;;142.68;71.47;;;;;;;;;;5085650;28;20035;-70
2022/03/15 06:11:24;;;;;;;153.43;60.20;;;;;;;;;;5072289;28;20024;-70
2022/03/15 06:13:49;;;;;;;148.77;61.42;;;;;;;;;;5083394;28;20056;-66
2022/03/15 06:16:15;;;;;;;246.98;110.60;;;;;;;;;;5070232;28;20107;-66
2022/03/15 06:18:40;;;;;;;199.38;95.90;;;;;;;;;;5079892;28;20508;-68
2022/03/15 06:21:05;;;;;;;90.45;50.00;;;;;;;;;;5084579;28;20042;-66
2022/03/15 06:23:31;;;;;;;73.70;41.50;;;;;;;;;;5083042;28;20052;-66
2022/03/15 06:25:56;;;;;;;57.00;33.03;;;;;;;;;;5076667;28;20105;-72
2022/03/15 06:28:21;;;;;;;125.45;66.15;;;;;;;;;;5083119;28;20461;-71
2022/03/15 06:30:47;;;;;;;194.95;105.93;;;;;;;;;;5082863;28;20024;-67
2022/03/15 06:33:13;;;;;;;142.10;73.88;;;;;;;;;;5086028;28;20062;-67
2022/03/15 06:35:38;;;;;;;79.32;46.25;;;;;;;;;;5084062;28;20445;-70
2022/03/15 06:38:03;;;;;;;145.13;78.60;;;;;;;;;;5085980;28;20031;-65
2022/03/15 06:40:32;;;;;;;86.47;47.78;;;;;;;;;;5083121;28;20488;-69
2022/03/15 06:42:58;;;;;;;112.95;70.10;;;;;;;;;;5082301;28;20027;-67
2022/03/15 06:45:23;;;;;;;95.20;58.25;;;;;;;;;;5082735;28;20039;-68
2022/03/15 06:47:48;;;;;;;100.28;60.55;;;;;;;;;;5082785;28;20028;-71
2022/03/15 06:50:14;;;;;;;89.88;51.88;;;;;;;;;;5082785;28;20036;-70
2022/03/15 06:52:41;;;;;;;70.93;43.97;;;;;;;;;;5073231;28;20439;-70
2022/03/15 06:55:06;;;;;;;112.60;65.90;;;;;;;;;;5071452;28;20023;-72
2022/03/15 06:57:32;;;;;;;93.15;59.70;;;;;;;;;;5078977;28;20335;-72
2022/03/15 06:59:59;;;;;;;60.55;39.13;;;;;;;;;;5070861;28;20016;-70
2022/03/15 07:02:25;;;;;;;59.25;38.78;;;;;;;;;;5070575;28;20609;-71
2022/03/15 07:04:51;;;;;;;75.10;49.65;;;;;;;;;;5070251;28;20435;-70
2022/03/15 07:07:16;;;;;;;79.90;47.58;;;;;;;;;;5069405;28;20464;-71
2022/03/15 07:09:42;;;;;;;138.48;76.22;;;;;;;;;;5062430;28;20099;-71
2022/03/15 07:12:07;;;;;;;95.60;55.10;;;;;;;;;;5074805;28;20121;-71
2022/03/15 07:14:32;;;;;;;164.32;94.07;;;;;;;;;;5070258;28;20032;-71
2022/03/15 07:16:58;;;;;;;128.02;76.10;;;;;;;;;;5070243;28;20020;-71
2022/03/15 07:19:24;;;;;;;57.22;35.55;;;;;;;;;;5069351;28;20098;-70
2022/03/15 07:21:49;;;;;;;83.28;51.65;;;;;;;;;;5072242;28;20445;-71
2022/03/15 07:24:14;;;;;;;63.58;40.25;;;;;;;;;;5071572;28;20027;-70
2022/03/15 07:26:40;;;;;;;48.75;32.00;;;;;;;;;;5070086;28;20028;-70
2022/03/15 07:29:05;;;;;;;49.17;36.05;;;;;;;;;;5071237;28;20107;-71
2022/03/15 07:31:30;;;;;;;48.72;33.45;;;;;;;;;;5072087;28;20057;-71
2022/03/15 07:33:56;;;;;;;39.78;28.02;;;;;;;;;;5069923;28;20027;-71
2022/03/15 07:36:22;;;;;;;44.10;27.67;;;;;;;;;;5076703;28;20074;-70
2022/03/15 07:38:47;;;;;;;54.47;37.63;;;;;;;;;;5084689;28;20439;-71
2022/03/15 07:41:13;;;;;;;48.72;34.42;;;;;;;;;;5083936;28;20040;-70
2022/03/15 07:43:38;;;;;;;206.85;112.25;;;;;;;;;;5086912;28;20458;-70
2022/03/15 07:46:04;;;;;;;74.65;46.65;;;;;;;;;;5084995;28;20042;-70
2022/03/15 07:48:29;;;;;;;166.27;94.32;;;;;;;;;;5085853;28;20019;-70
2022/03/15 07:50:54;;;;;;;79.70;52.28;;;;;;;;;;5087514;28;20308;-70
2022/03/15 07:53:20;;;;;;;61.33;50.38;;;;;;;;;;5085113;28;20024;-72
2022/03/15 07:55:45;;;;;;;53.20;42.28;;;;;;;;;;5086069;28;20158;-71
2022/03/15 07:58:10;;;;;;;48.40;36.80;;;;;;;;;;5087349;28;20104;-72
2022/03/15 08:00:37;;;;;;;68.72;45.50;;;;;;;;;;5084199;28;20051;-73
2022/03/15 08:03:02;;;;;;;68.22;46.30;;;;;;;;;;5086787;28;20089;-70
2022/03/15 08:05:28;;;;;;;76.15;50.67;;;;;;;;;;5085144;28;20031;-70
2022/03/15 08:07:54;;;;;;;104.50;68.43;;;;;;;;;;5087673;28;20024;-70
2022/03/15 08:10:20;;;;;;;43.70;31.35;;;;;;;;;;5084943;28;20028;-70
2022/03/15 08:12:45;;;;;;;26.67;19.23;;;;;;;;;;5085131;28;20044;-70
2022/03/15 08:15:11;;;;;;;19.33;16.55;;;;;;;;;;5086313;28;20031;-71
2022/03/15 08:17:40;;;;;;;21.02;15.52;;;;;;;;;;5084480;28;20423;-70
2022/03/15 08:20:06;;;;;;;63.97;44.20;;;;;;;;;;5084525;28;20702;-70
2022/03/15 08:22:32;;;;;;;22.83;17.90;;;;;;;;;;5085250;28;20038;-73
2022/03/15 08:24:58;;;;;;;19.73;15.15;;;;;;;;;;5085925;28;20020;-70
2022/03/15 08:27:23;;;;;;;30.15;25.05;;;;;;;;;;5085289;28;20423;-70
2022/03/15 08:29:48;;;;;;;27.10;22.60;;;;;;;;;;5083798;28;20419;-70
2022/03/15 08:32:14;;;;;;;63.55;47.92;;;;;;;;;;5085988;28;20028;-70
2022/03/15 08:34:39;;;;;;;31.92;20.05;;;;;;;;;;5084974;28;20032;-71
2022/03/15 08:37:05;;;;;;;107.18;42.00;;;;;;;;;;5084340;28;20039;-70
2022/03/15 08:39:31;;;;;;;43.90;28.40;;;;;;;;;;5085688;28;20362;-71
2022/03/15 08:41:57;;;;;;;17.85;9.80;;;;;;;;;;5087223;28;20031;-71
2022/03/15 08:44:23;;;;;;;14.95;9.00;;;;;;;;;;5083145;28;20036;-71
2022/03/15 08:46:49;;;;;;;12.02;7.22;;;;;;;;;;5084167;28;20035;-70
2022/03/15 08:49:15;;;;;;;23.27;9.73;;;;;;;;;;5084556;28;20032;-71
2022/03/15 08:51:41;;;;;;;18.52;7.57;;;;;;;;;;5085407;28;20032;-71
2022/03/15 08:54:06;;;;;;;14.57;8.73;;;;;;;;;;5082043;28;20031;-73
2022/03/15 08:56:32;;;;;;;12.25;7.38;;;;;;;;;;5084965;28;20442;-73
2022/03/15 08:58:57;;;;;;;13.20;9.18;;;;;;;;;;5084016;28;20056;-73
2022/03/15 09:01:23;;;;;;;12.82;7.95;;;;;;;;;;5083490;28;20427;-74
2022/03/15 09:03:48;;;;;;;38.38;23.17;;;;;;;;;;5085448;28;20032;-73
2022/03/15 09:06:14;;;;;;;73.57;33.08;;;;;;;;;;5076949;28;20332;-74
2022/03/15 09:08:39;;;;;;;112.20;50.00;;;;;;;;;;5074936;28;20446;-73
2022/03/15 09:11:04;;;;;;;45.90;21.73;;;;;;;;;;5080362;28;20027;-71
2022/03/15 09:13:30;;;;;;;39.15;21.23;;;;;;;;;;5073512;28;20048;-71
2022/03/15 09:15:55;;;;;;;40.22;23.50;;;;;;;;;;5076277;28;20089;-72
2022/03/15 09:18:20;;;;;;;37.70;23.73;;;;;;;;;;5076230;28;20027;-71
2022/03/15 09:20:46;;;;;;;19.00;14.05;;;;;;;;;;5076074;28;20036;-73
2022/03/15 09:23:12;;;;;;;25.30;15.98;;;;;;;;;;5073471;28;20024;-74
2022/03/15 09:25:37;;;;;;;25.80;16.17;;;;;;;;;;5077036;28;20054;-72
2022/03/15 09:28:03;;;;;;;35.65;19.92;;;;;;;;;;5074463;28;20028;-71
2022/03/15 09:30:30;;;;;;;22.08;14.35;;;;;;;;;;5082182;28;20036;-70
2022/03/15 09:32:57;;;;;;;14.30;10.40;;;;;;;;;;5077990;28;20449;-71
2022/03/15 09:35:22;;;;;;;16.75;10.85;;;;;;;;;;5081148;28;20058;-70
2022/03/15 09:37:49;;;;;;;13.65;9.35;;;;;;;;;;5082807;28;20090;-72
2022/03/15 09:40:14;;;;;;;18.38;12.05;;;;;;;;;;5075305;28;20037;-72
2022/03/15 09:42:40;;;;;;;14.35;10.23;;;;;;;;;;5073503;28;20031;-70
2022/03/15 09:45:06;;;;;;;8.48;6.45;;;;;;;;;;5071091;28;20024;-71
2022/03/15 09:47:32;;;;;;;20.10;12.40;;;;;;;;;;5072480;28;20030;-71
2022/03/15 09:50:01;;;;;;;11.30;8.63;;;;;;;;;;5071733;28;20090;-71
2022/03/15 09:52:27;;;;;;;8.32;6.25;;;;;;;;;;5071772;28;20035;-70
2022/03/15 09:54:54;;;;;;;8.30;6.35;;;;;;;;;;5071897;28;20089;-70
2022/03/15 09:57:20;;;;;;;9.48;6.55;;;;;;;;;;5075590;28;20028;-68
2022/03/15 09:59:47;;;;;;;12.85;8.82;;;;;;;;;;5054464;28;20032;-72
2022/03/15 10:02:12;;;;;;;8.48;6.60;;;;;;;;;;5073374;28;20609;-69
2022/03/15 10:04:37;;;;;;;9.18;6.30;;;;;;;;;;5074590;28;20019;-72
2022/03/15 10:07:04;;;;;;;10.55;8.00;;;;;;;;;;5074000;28;20028;-70
2022/03/15 10:09:30;;;;;;;15.93;10.10;;;;;;;;;;5071693;28;20447;-71
2022/03/15 10:11:56;;;;;;;41.15;24.55;;;;;;;;;;5072366;28;20458;-69
2022/03/15 10:14:21;;;;;;;44.67;25.88;;;;;;;;;;5072356;28;20487;-71
2022/03/15 10:16:49;;;;;;;31.33;18.73;;;;;;;;;;5071682;28;20347;-70
2022/03/15 10:19:14;;;;;;;31.95;19.70;;;;;;;;;;5073179;28;20036;-69
2022/03/15 10:21:47;;;;;;;29.60;18.80;;;;;;;;;;5071700;28;20815;-70
2022/03/15 10:24:17;;;;;;;26.05;17.52;;;;;;;;;;5074443;28;20024;-70
2022/03/15 10:26:43;;;;;;;21.25;14.00;;;;;;;;;;5073976;28;20053;-69
2022/03/15 10:29:11;;;;;;;21.35;13.85;;;;;;;;;;5074225;28;20035;-69
2022/03/15 10:31:37;;;;;;;13.98;9.98;;;;;;;;;;5071999;28;20031;-69
2022/03/15 10:34:05;;;;;;;7.10;5.97;;;;;;;;;;5073263;28;20019;-71
2022/03/15 10:36:37;;;;;;;9.38;7.47;;;;;;;;;;5072800;28;20013;-69
2022/03/15 10:39:03;;;;;;;7.88;5.50;;;;;;;;;;5071923;28;20458;-71
2022/03/15 10:41:29;;;;;;;6.82;5.63;;;;;;;;;;5071299;28;20036;-70
2022/03/15 10:43:55;;;;;;;5.55;4.80;;;;;;;;;;5071360;28;20024;-73
2022/03/15 10:46:22;;;;;;;37.60;23.42;;;;;;;;;;5074575;28;20020;-70
2022/03/15 10:48:51;;;;;;;30.20;15.57;;;;;;;;;;5083693;28;20358;-71
2022/03/15 10:51:17;;;;;;;24.60;13.85;;;;;;;;;;5073777;28;20715;-72
2022/03/15 10:53:47;;;;;;;19.40;12.65;;;;;;;;;;5078293;28;20032;-70
2022/03/15 10:56:14;;;;;;;11.55;8.30;;;;;;;;;;5073569;28;20019;-72
2022/03/15 10:58:46;;;;;;;25.17;17.85;;;;;;;;;;5070369;28;20453;-72
2022/03/15 11:01:12;;;;;;;25.40;19.10;;;;;;;;;;5073385;28;20020;-70
2022/03/15 11:03:38;;;;;;;7.47;5.32;;;;;;;;;;5082155;28;20453;-70
2022/03/15 11:06:08;;;;;;;6.78;5.50;;;;;;;;;;5084076;28;20024;-71
2022/03/15 11:08:34;;;;;;;7.57;6.03;;;;;;;;;;5083487;28;20066;-70
2022/03/15 11:11:03;;;;;;;7.65;5.30;;;;;;;;;;5081840;28;20056;-70
2022/03/15 11:13:29;;;;;;;;;;;;;;;;;;5083644;28;20081;-71
2022/03/15 11:15:55;;;;;;;9.70;6.93;;;;;;;;;;5082143;28;19919;-71
2022/03/15 11:18:21;;;;;;;11.00;7.63;;;;;;;;;;5082874;28;20126;-71
2022/03/15 11:20:50;;;;;;;9.30;7.30;;;;;;;;;;5082331;28;20530;-72
2022/03/15 11:23:16;;;;;;;6.88;6.18;;;;;;;;;;5081422;28;20063;-71
2022/03/15 11:25:43;;;;;;;8.88;5.35;;;;;;;;;;5082114;28;20692;-71
2022/03/15 11:28:11;;;;;;;7.63;6.35;;;;;;;;;;5081937;28;20062;-71
2022/03/15 11:30:36;;;;;;;22.63;17.48;;;;;;;;;;5085008;28;20028;-71
2022/03/15 11:33:03;;;;;;;16.23;13.95;;;;;;;;;;5082690;28;20036;-71
2022/03/15 11:35:31;;;;;;;8.13;5.35;;;;;;;;;;5082174;28;20066;-72
2022/03/15 11:37:57;;;;;;;7.65;5.18;;;;;;;;;;5081405;28;20107;-71
2022/03/15 11:40:22;;;;;;;9.70;6.45;;;;;;;;;;5081343;28;20058;-71
2022/03/15 11:42:50;;;;;;;9.15;6.78;;;;;;;;;;5081247;28;20370;-71
2022/03/15 11:45:29;;;;;;;7.80;6.80;;;;;;;;;;5082394;28;20027;-71
2022/03/15 11:47:54;;;;;;;;;;;;;;;;;;5082865;28;20754;-71
2022/03/15 11:50:46;;;;;;;14.27;9.90;;;;;;;;;;5082613;28;19916;-71
2022/03/15 11:53:17;;;;;;;7.75;5.68;;;;;;;;;;5061885;28;20260;-70
2022/03/15 11:55:49;;;;;;;8.70;5.75;;;;;;;;;;5082023;28;20055;-70
2022/03/15 11:58:26;;;;;;;7.10;4.75;;;;;;;;;;5083257;28;20032;-70
2022/03/15 12:00:52;;;;;;;9.23;5.78;;;;;;;;;;5064146;28;20047;-70
2022/03/15 12:03:18;;;;;;;6.93;5.68;;;;;;;;;;5082519;28;20036;-71
2022/03/15 12:05:47;;;;;;;9.90;6.15;;;;;;;;;;5081097;28;20034;-70
2022/03/15 12:08:16;;;;;;;23.63;19.67;;;;;;;;;;5081744;28;20125;-70
2022/03/15 12:10:50;;;;;;;18.15;13.93;;;;;;;;;;5082245;28;20705;-70
2022/03/15 12:13:16;;;;;;;8.45;7.20;;;;;;;;;;5081915;28;20062;-70
2022/03/15 12:15:44;;;;;;;32.42;21.00;;;;;;;;;;5080552;28;20020;-69
2022/03/15 12:18:43;;;;;;;34.40;22.35;;;;;;;;;;5082371;28;20028;-71
2022/03/15 12:21:04;;;;;;;15.80;11.70;;;;;;;;;;5078133;28;20036;-69
2022/03/15 12:23:43;;;;;;;19.75;14.48;;;;;;;;;;5082402;28;20031;-72
2022/03/15 12:26:19;;;;;;;24.15;17.70;;;;;;;;;;5081474;28;20024;-72
2022/03/15 12:28:55;;;;;;;7.95;7.15;;;;;;;;;;5083532;28;20024;-71
2022/03/15 12:31:31;;;;;;;19.25;14.55;;;;;;;;;;5085023;28;20270;-72
2022/03/15 12:34:00;;;;;;;11.30;9.38;;;;;;;;;;5086212;28;20492;-71
2022/03/15 12:36:35;;;;;;;12.73;10.45;;;;;;;;;;5085557;28;20126;-71
2022/03/15 12:39:06;;;;;;;10.30;7.40;;;;;;;;;;5085184;28;20444;-71
2022/03/15 12:41:32;;;;;;;10.32;8.63;;;;;;;;;;5084305;28;20035;-71
2022/03/15 12:43:57;;;;;;;19.73;13.05;;;;;;;;;;5084204;28;20027;-71
2022/03/15 12:46:30;;;;;;;16.70;11.30;;;;;;;;;;5085663;28;20032;-72
2022/03/15 12:48:55;;;;;;;7.85;5.60;;;;;;;;;;5086143;28;20485;-72
2022/03/15 12:51:21;;;;;;;6.75;5.20;;;;;;;;;;5083704;28;20024;-72
2022/03/15 12:53:48;;;;;;;5.95;4.72;;;;;;;;;;5068083;28;20043;-71
2022/03/15 12:56:14;;;;;;;16.02;9.32;;;;;;;;;;5082866;28;20043;-71
2022/03/15 12:58:40;;;;;;;25.20;15.57;;;;;;;;;;5084725;28;20435;-71
2022/03/15 13:01:09;;;;;;;8.27;5.82;;;;;;;;;;5084984;28;20031;-71
2022/03/15 13:03:38;;;;;;;8.88;4.97;;;;;;;;;;5083801;28;20059;-71
2022/03/15 13:06:03;;;;;;;6.35;4.85;;;;;;;;;;5084846;28;20107;-71
2022/03/15 13:08:30;;;;;;;8.88;6.20;;;;;;;;;;5085537;28;20115;-71
2022/03/15 13:10:58;;;;;;;12.82;8.73;;;;;;;;;;5084832;28;20480;-71
2022/03/15 13:13:27;;;;;;;12.50;9.38;;;;;;;;;;5084166;28;20040;-71
2022/03/15 13:16:08;;;;;;;17.98;13.23;;;;;;;;;;5083113;28;20064;-71
2022/03/15 13:18:34;;;;;;;27.63;19.73;;;;;;;;;;5083775;28;20031;-71
2022/03/15 13:21:01;;;;;;;14.15;11.48;;;;;;;;;;5084179;28;20328;-70
2022/03/15 13:23:31;;;;;;;10.80;8.40;;;;;;;;;;5083945;28;20024;-70
2022/03/15 13:26:05;;;;;;;11.43;8.70;;;;;;;;;;5083428;28;20059;-70
2022/03/15 13:28:32;;;;;;;24.08;19.63;;;;;;;;;;5085518;28;20120;-70
2022/03/15 13:31:04;;;;;;;9.07;7.93;;;;;;;;;;5082548;28;20036;-70
2022/03/15 13:33:30;;;;;;;49.03;35.97;;;;;;;;;;5083718;28;20028;-69
2022/03/15 13:36:04;;;;;;;5.97;5.38;;;;;;;;;;5083267;28;20028;-69
2022/03/15 13:38:30;;;;;;;9.65;7.43;;;;;;;;;;5066638;28;20024;-69
2022/03/15 13:40:57;;;;;;;15.77;10.73;;;;;;;;;;5085304;28;20028;-70
2022/03/15 13:43:23;;;;;;;19.92;13.60;;;;;;;;;;5084124;28;20023;-69
2022/03/15 13:45:49;;;;;;;9.88;6.95;;;;;;;;;;5083343;28;20084;-70
2022/03/15 13:48:31;;;;;;;10.02;8.27;;;;;;;;;;5065542;28;20096;-71
2022/03/15 13:51:10;;;;;;;18.05;13.02;;;;;;;;;;5083953;28;20028;-71
2022/03/15 13:53:46;;;;;;;11.88;8.52;;;;;;;;;;5084170;28;20040;-69
2022/03/15 13:56:19;;;;;;;37.85;30.52;;;;;;;;;;5084504;28;20131;-71
2022/03/15 13:58:56;;;;;;;24.63;19.55;;;;;;;;;;5084417;28;20109;-71
2022/03/15 14:01:22;;;;;;;28.58;20.60;;;;;;;;;;5083630;28;20568;-70
2022/03/15 14:03:47;;;;;;;20.40;16.75;;;;;;;;;;5083211;28;20012;-71
2022/03/15 14:06:13;;;;;;;28.27;20.40;;;;;;;;;;5083736;28;20020;-69
2022/03/15 14:08:45;;;;;;;224.15;117.82;;;;;;;;;;5083419;28;20027;-70
2022/03/15 14:11:12;;;;;;;153.30;93.40;;;;;;;;;;5083928;28;20458;-70
2022/03/15 14:13:37;;;;;;;39.30;26.77;;;;;;;;;;5083425;28;20426;-70
2022/03/15 14:16:07;;;;;;;28.35;19.55;;;;;;;;;;5074340;28;20031;-70
2022/03/15 14:18:33;;;;;;;18.80;14.35;;;;;;;;;;5073827;28;20396;-71